Terminal Aerodrome Forecast
Issued by NWS

Home | Current Version | Previous Version | Text Only | Print | Product List | Glossary On
Versions: 1 2 3 4 5 6 7 8 9 10 11 12 13 14 15 16 17 18 19 20 21 22 23 24 25 26 27 28 29 30 31 32 33 34 35
000
FTUS45 KBOI 212320
TAFJER
TAF
KJER 212320Z 2200/2224 VRB25G35KT P6SM TSRA OVC050CB
     FM220100 12008KT P6SM VCTS FEW080CB BKN100
      TEMPO 2201/2203 VRB25G35KT 6SM TSRA OVC050CB
     FM220400 08009KT P6SM BKN150
     FM221000 07010KT P6SM VCSH BKN120=

USA.gov is the U.S. government's official web portal to all federal, state and local government web resources and services.